Time;durP1;ratioP1;P1;durP2;ratioP2;P2;SDS_P1;SDS_P2;PMS_P1;PMS_P2;Temp;Humidity;BMP_temperature;BMP_pressure;BME280_temperature;BME280_humidity;BME280_pressure;Samples;Min_cycle;Max_cycle;Signal;HPM_P1;HPM_P2
2020/12/07 00:00:42;;;;;;;6.55;3.10;;;;;;;10.94;60.95;98566.63;4897453;29;20052;-76
2020/12/07 00:03:13;;;;;;;5.60;3.20;;;;;;;10.86;60.77;98550.63;4912855;29;20048;-76
2020/12/07 00:05:41;;;;;;;6.35;3.08;;;;;;;10.82;60.96;98538.78;4898370;29;20063;-74
2020/12/07 00:08:10;;;;;;;5.63;2.78;;;;;;;11.04;60.50;98560.44;4898221;29;20407;-74
2020/12/07 00:10:38;;;;;;;5.90;3.25;;;;;;;10.65;61.21;98521.28;4898554;29;20044;-74
2020/12/07 00:13:06;;;;;;;9.65;3.72;;;;;;;11.00;61.40;98584.34;4902059;29;20044;-74
2020/12/07 00:15:33;;;;;;;5.70;3.20;;;;;;;10.61;61.25;98500.06;4902145;29;20048;-74
2020/12/07 00:18:03;;;;;;;7.70;3.47;;;;;;;10.86;61.49;98555.72;4901926;29;20108;-74
2020/12/07 00:20:31;;;;;;;5.70;3.42;;;;;;;10.40;61.71;98480.09;4901062;29;20052;-75
2020/12/07 00:22:59;;;;;;;5.93;3.20;;;;;;;10.95;61.26;98555.53;4901756;29;20068;-73
2020/12/07 00:25:27;;;;;;;7.38;3.53;;;;;;;10.80;61.54;98538.00;4900976;29;20100;-75
2020/12/07 00:27:55;;;;;;;5.82;2.92;;;;;;;10.68;61.52;98557.75;4901884;29;20513;-75
2020/12/07 00:30:23;;;;;;;5.35;3.15;;;;;;;10.98;61.01;98583.56;4901831;29;20123;-76
2020/12/07 00:32:51;;;;;;;6.68;3.20;;;;;;;10.96;60.80;98572.53;4901896;29;20506;-75
2020/12/07 00:35:20;;;;;;;6.63;3.42;;;;;;;10.96;60.76;98578.50;4901962;29;20048;-74
2020/12/07 00:37:48;;;;;;;6.45;3.13;;;;;;;10.72;60.55;98536.41;4916240;29;20048;-76
2020/12/07 00:40:16;;;;;;;6.10;3.17;;;;;;;10.70;60.72;98525.38;4900670;29;20151;-74
2020/12/07 00:42:43;;;;;;;6.70;2.90;;;;;;;10.80;60.83;98546.47;4900708;29;20048;-73
2020/12/07 00:45:11;;;;;;;6.68;3.17;;;;;;;10.90;60.72;98542.00;4901519;29;20428;-75
2020/12/07 00:47:39;;;;;;;6.47;3.20;;;;;;;11.00;60.44;98589.47;4901593;29;20048;-76
2020/12/07 00:50:07;;;;;;;6.47;2.83;;;;;;;10.39;60.71;98496.25;4901407;29;20055;-75
2020/12/07 00:52:38;;;;;;;6.05;2.97;;;;;;;10.83;61.10;98571.09;4900601;29;20055;-75
2020/12/07 00:55:05;;;;;;;4.80;2.92;;;;;;;10.55;60.92;98524.88;4916174;29;20049;-74
2020/12/07 00:57:33;;;;;;;5.05;3.08;;;;;;;10.95;61.08;98574.25;4915811;29;20119;-74
2020/12/07 01:00:02;;;;;;;4.88;2.58;;;;;;;10.80;60.40;98546.47;4901309;29;20040;-76
2020/12/07 01:02:33;;;;;;;5.10;2.80;;;;;;;11.02;60.60;98580.06;4915865;29;20049;-75
2020/12/07 01:05:04;;;;;;;6.20;3.20;;;;;;;10.93;60.15;98564.94;4900410;29;20045;-73
2020/12/07 01:07:33;;;;;;;5.70;2.90;;;;;;;11.04;60.33;98580.84;4916055;29;20049;-75
2020/12/07 01:10:02;;;;;;;5.70;2.75;;;;;;;11.05;59.85;98572.34;4915699;29;20083;-74
2020/12/07 01:12:31;;;;;;;6.65;3.15;;;;;;;11.10;59.50;98576.50;4899936;29;20052;-75
2020/12/07 01:15:00;;;;;;;5.93;2.83;;;;;;;10.86;59.38;98530.19;4915992;29;20040;-75
2020/12/07 01:17:31;;;;;;;5.63;3.15;;;;;;;10.93;59.58;98535.16;4899885;29;20055;-74
2020/12/07 01:20:06;;;;;;;4.65;2.67;;;;;;;11.16;59.25;98560.19;4915661;29;20135;-74
2020/12/07 01:22:35;;;;;;;6.15;3.00;;;;;;;11.07;59.66;98550.16;4898488;29;20052;-74
2020/12/07 01:25:06;;;;;;;;;;;;;;;11.06;59.82;98579.16;4915996;29;20052;-74
2020/12/07 01:27:45;;;;;;;6.07;2.75;;;;;;;10.74;60.08;98527.03;4915279;29;19924;-74
2020/12/07 01:30:18;;;;;;;5.38;2.63;;;;;;;11.01;59.84;98555.41;4915458;29;20051;-73
2020/12/07 01:32:46;;;;;;;5.88;2.78;;;;;;;10.99;60.01;98552.06;4915212;29;20084;-75
2020/12/07 01:35:14;;;;;;;5.20;2.58;;;;;;;10.76;60.15;98525.28;4900784;29;20052;-74
2020/12/07 01:37:42;;;;;;;5.00;2.75;;;;;;;10.92;59.92;98550.50;4900498;29;20132;-74
2020/12/07 01:40:14;;;;;;;5.30;2.85;;;;;;;10.50;60.05;98471.38;4915338;29;20134;-75
2020/12/07 01:42:42;;;;;;;;;;;;;;;10.88;60.39;98536.09;4899886;29;20048;-74
2020/12/07 01:45:10;;;;;;;5.40;2.65;;;;;;;10.37;59.87;98444.44;4900763;29;20022;-74
2020/12/07 01:47:38;;;;;;;5.18;2.58;;;;;;;10.86;60.58;98535.31;4900476;29;20070;-73
2020/12/07 01:50:11;;;;;;;6.20;3.05;;;;;;;10.84;60.47;98537.03;4899314;29;20052;-73
2020/12/07 01:52:41;;;;;;;4.85;2.35;;;;;;;10.71;60.36;98527.09;4915033;29;20068;-74
2020/12/07 01:55:09;;;;;;;5.32;2.70;;;;;;;10.82;60.14;98531.13;4899129;29;20444;-74
2020/12/07 01:57:47;;;;;;;4.30;2.45;;;;;;;10.56;59.98;98481.47;4899215;29;20060;-73
2020/12/07 02:00:16;;;;;;;5.43;2.47;;;;;;;10.81;59.85;98527.75;4899300;29;20206;-74
2020/12/07 02:02:46;;;;;;;4.85;2.50;;;;;;;10.82;60.18;98528.59;4900320;29;20045;-75
2020/12/07 02:05:20;;;;;;;4.47;2.35;;;;;;;10.78;60.24;98528.63;4914772;29;20532;-73
2020/12/07 02:08:01;;;;;;;5.10;2.70;;;;;;;10.77;60.28;98526.94;4915054;29;20511;-75
2020/12/07 02:10:29;;;;;;;5.00;2.53;;;;;;;10.76;60.30;98525.28;4900122;29;20444;-76
2020/12/07 02:12:58;;;;;;;4.80;2.60;;;;;;;10.68;60.42;98508.44;4914654;29;20048;-76
2020/12/07 02:15:26;;;;;;;4.23;2.30;;;;;;;10.70;60.80;98504.97;4899012;29;20498;-76
2020/12/07 02:17:55;;;;;;;5.22;2.42;;;;;;;10.72;60.42;98513.44;4899119;29;20132;-74
2020/12/07 02:20:23;;;;;;;4.28;2.03;;;;;;;10.50;60.57;98475.63;4867869;29;20503;-76
2020/12/07 02:22:52;;;;;;;3.97;2.13;;;;;;;10.67;60.11;98510.16;4914166;29;20053;-75
2020/12/07 02:25:40;;;;;;;4.85;2.47;;;;;;;10.48;60.47;98473.13;4898249;29;20056;-75
2020/12/07 02:28:08;;;;;;;4.75;2.20;;;;;;;10.61;60.69;98504.31;4899743;29;20057;-74
2020/12/07 02:30:36;;;;;;;4.80;2.40;;;;;;;10.64;61.11;98500.00;4883205;29;20048;-76
2020/12/07 02:33:05;;;;;;;5.53;2.50;;;;;;;10.64;60.92;98505.13;4898169;29;20499;-74
2020/12/07 02:35:34;;;;;;;4.65;2.28;;;;;;;10.54;60.32;98498.50;4898954;29;20428;-74
2020/12/07 02:38:02;;;;;;;5.33;2.43;;;;;;;10.63;60.32;98512.78;4914052;29;20151;-74
2020/12/07 02:40:35;;;;;;;5.45;2.58;;;;;;;10.60;60.98;98513.72;4882920;29;20615;-76
2020/12/07 02:43:05;;;;;;;6.03;2.67;;;;;;;10.14;60.61;98441.50;4899455;29;20178;-77
2020/12/07 02:45:34;;;;;;;5.68;2.50;;;;;;;10.58;60.70;98510.31;4898367;29;20399;-77
2020/12/07 02:48:07;;;;;;;4.25;2.40;;;;;;;10.56;60.55;98517.16;4898249;29;20096;-73
2020/12/07 02:50:39;;;;;;;5.15;2.15;;;;;;;10.49;60.63;98507.94;4898331;29;20049;-73
2020/12/07 02:53:11;;;;;;;5.10;2.40;;;;;;;10.50;60.66;98535.16;4898139;29;20135;-74
2020/12/07 02:55:42;;;;;;;4.70;1.98;;;;;;;10.55;60.22;98520.59;4898382;29;20104;-76
2020/12/07 02:58:10;;;;;;;5.72;2.22;;;;;;;10.58;60.84;98545.22;4899099;29;20104;-74
2020/12/07 03:00:39;;;;;;;5.20;2.65;;;;;;;10.53;60.17;98541.91;4898093;29;20076;-73
2020/12/07 03:03:07;;;;;;;6.05;2.70;;;;;;;10.39;60.43;98519.19;4897925;29;20051;-74
2020/12/07 03:05:40;;;;;;;4.50;2.20;;;;;;;10.26;60.65;98502.47;4898298;29;20501;-74
2020/12/07 03:08:15;;;;;;;5.22;2.42;;;;;;;10.60;60.11;98548.59;4913788;29;20052;-74
2020/12/07 03:10:44;;;;;;;4.50;2.50;;;;;;;10.10;60.12;98466.16;4913554;29;20139;-77
2020/12/07 03:13:13;;;;;;;4.78;2.17;;;;;;;10.50;60.45;98512.19;4913504;29;20036;-74
2020/12/07 03:15:49;;;;;;;4.50;2.47;;;;;;;10.29;60.46;98494.75;4897788;29;20043;-77
2020/12/07 03:18:20;;;;;;;4.72;2.33;;;;;;;10.31;59.63;98487.91;4913427;29;20048;-77
2020/12/07 03:20:58;;;;;;;4.80;2.50;;;;;;;10.58;59.87;98517.97;4913384;29;20053;-74
2020/12/07 03:23:26;;;;;;;6.27;2.70;;;;;;;10.59;60.28;98508.63;4897523;29;20055;-74
2020/12/07 03:25:58;;;;;;;5.03;2.28;;;;;;;10.60;60.20;98513.72;4897579;29;20279;-73
2020/12/07 03:28:27;;;;;;;3.78;1.88;;;;;;;10.66;59.99;98513.56;4913295;29;20068;-73
2020/12/07 03:30:56;;;;;;;4.57;2.38;;;;;;;10.60;59.96;98503.50;4897446;29;20096;-74
2020/12/07 03:33:24;;;;;;;4.40;1.70;;;;;;;10.65;59.92;98522.09;4897824;29;20080;-73
2020/12/07 03:35:53;;;;;;;4.50;2.40;;;;;;;10.68;60.24;98527.13;4897384;29;20040;-74
2020/12/07 03:38:23;;;;;;;4.90;2.20;;;;;;;10.61;59.77;98514.53;4897444;29;20052;-73
2020/12/07 03:40:52;;;;;;;4.65;2.30;;;;;;;10.06;60.31;98422.91;4867468;29;20056;-73
2020/12/07 03:43:31;;;;;;;4.72;2.08;;;;;;;10.62;59.82;98517.06;4913250;29;20550;-74
2020/12/07 03:45:59;;;;;;;4.78;2.33;;;;;;;10.62;60.08;98517.06;4897817;29;20067;-74
2020/12/07 03:48:29;;;;;;;4.35;2.10;;;;;;;10.63;60.05;98517.88;4897392;29;20104;-76
2020/12/07 03:50:58;;;;;;;6.10;2.72;;;;;;;10.64;60.20;98539.97;4898329;29;20049;-73
2020/12/07 03:53:31;;;;;;;4.68;2.13;;;;;;;10.22;59.79;98466.84;4897609;29;20091;-74
2020/12/07 03:56:01;;;;;;;4.75;2.50;;;;;;;10.69;59.94;98544.13;4881918;29;20052;-76
2020/12/07 03:58:29;;;;;;;5.43;2.50;;;;;;;10.67;59.79;98539.94;4897389;29;20096;-73
2020/12/07 04:00:58;;;;;;;5.43;2.58;;;;;;;10.29;59.86;98459.06;4897471;29;20049;-74
2020/12/07 04:03:26;;;;;;;4.40;1.90;;;;;;;10.70;59.85;98534.78;4912928;29;20045;-75
2020/12/07 04:06:05;;;;;;;4.78;2.10;;;;;;;10.70;59.45;98538.16;4898381;29;20049;-76
2020/12/07 04:08:34;;;;;;;4.85;2.50;;;;;;;10.55;60.09;98510.41;4897128;29;20132;-74
2020/12/07 04:11:02;;;;;;;4.20;2.28;;;;;;;10.70;60.22;98530.50;4898489;29;20076;-74
2020/12/07 04:13:30;;;;;;;4.45;2.30;;;;;;;10.64;59.88;98515.31;4898236;29;20048;-74
2020/12/07 04:15:58;;;;;;;4.63;2.08;;;;;;;10.64;59.62;98515.31;4913145;29;20045;-76
2020/12/07 04:18:28;;;;;;;4.38;1.90;;;;;;;10.62;60.28;98522.16;4898399;29;20048;-75
2020/12/07 04:21:00;;;;;;;6.43;2.40;;;;;;;10.64;60.41;98539.97;4881301;29;20041;-73
2020/12/07 04:23:28;;;;;;;5.13;2.33;;;;;;;10.33;59.78;98482.78;4898175;29;20060;-77
2020/12/07 04:25:59;;;;;;;6.53;2.80;;;;;;;10.65;60.11;98537.41;4881768;29;20048;-76
2020/12/07 04:28:28;;;;;;;7.20;2.25;;;;;;;10.62;59.70;98536.63;4882008;29;20056;-76
2020/12/07 04:30:57;;;;;;;3.85;2.03;;;;;;;10.60;59.55;98528.16;4898189;29;20049;-74
2020/12/07 04:33:25;;;;;;;6.80;2.60;;;;;;;10.41;60.19;98486.88;4898109;29;20040;-76
2020/12/07 04:35:53;;;;;;;4.90;2.20;;;;;;;10.46;60.02;98510.56;4896932;29;20065;-78
2020/12/07 04:38:21;;;;;;;4.60;2.40;;;;;;;10.60;59.64;98544.31;4897219;29;20087;-76
2020/12/07 04:40:49;;;;;;;5.35;2.35;;;;;;;10.18;59.82;98440.56;4898178;29;20048;-74
2020/12/07 04:43:18;;;;;;;5.57;2.20;;;;;;;10.39;59.85;98498.78;4898065;29;20049;-76
2020/12/07 04:45:45;;;;;;;4.20;2.37;;;;;;;10.62;59.63;98542.59;4897894;29;20052;-76
2020/12/07 04:48:15;;;;;;;5.13;2.25;;;;;;;10.58;59.77;98515.44;4897979;29;20056;-73
2020/12/07 04:50:43;;;;;;;4.47;2.38;;;;;;;10.49;59.91;98520.72;4897859;29;20049;-73
2020/12/07 04:53:11;;;;;;;5.22;2.10;;;;;;;10.52;59.83;98524.91;4896796;29;20060;-74
2020/12/07 04:55:38;;;;;;;5.70;2.28;;;;;;;10.61;59.56;98533.22;4897931;29;20498;-76
2020/12/07 04:58:07;;;;;;;3.08;1.65;;;;;;;10.54;59.65;98523.16;4900023;29;20056;-74
2020/12/07 05:00:35;;;;;;;4.15;2.00;;;;;;;10.26;59.80;98484.63;4901130;29;20399;-75
2020/12/07 05:03:03;;;;;;;9.90;2.28;;;;;;;10.46;60.08;98536.06;4901315;29;20139;-77
2020/12/07 05:05:31;;;;;;;5.28;2.40;;;;;;;10.55;60.02;98547.81;4884531;29;20052;-76
2020/12/07 05:07:59;;;;;;;4.70;2.05;;;;;;;10.30;60.25;98509.16;4915650;29;20060;-76
2020/12/07 05:10:31;;;;;;;4.15;2.03;;;;;;;10.54;59.95;98559.72;4901188;29;20055;-76
2020/12/07 05:13:04;;;;;;;4.53;2.45;;;;;;;10.53;59.56;98547.84;4901119;29;20049;-75
2020/12/07 05:15:33;;;;;;;4.72;2.17;;;;;;;10.44;59.60;98539.50;4901087;29;20052;-74
2020/12/07 05:18:02;;;;;;;3.67;1.80;;;;;;;10.46;60.12;98541.16;4900982;29;20056;-75
2020/12/07 05:20:30;;;;;;;4.88;2.25;;;;;;;10.52;60.12;98563.19;4900984;29;20055;-74
2020/12/07 05:22:59;;;;;;;4.80;2.25;;;;;;;10.46;60.27;98561.56;4900793;29;20057;-73
2020/12/07 05:25:31;;;;;;;4.03;1.92;;;;;;;10.09;60.43;98501.88;4901049;29;20115;-73
2020/12/07 05:27:59;;;;;;;8.40;3.00;;;;;;;10.05;59.90;98487.53;4900806;29;20136;-75
2020/12/07 05:30:31;;;;;;;5.25;2.40;;;;;;;10.46;60.01;98551.38;4900848;29;20052;-73
2020/12/07 05:33:04;;;;;;;4.35;2.30;;;;;;;10.16;59.52;98511.13;4899684;29;20056;-73
2020/12/07 05:35:36;;;;;;;4.22;2.10;;;;;;;9.70;59.86;98449.06;4901127;29;20404;-76
2020/12/07 05:38:04;;;;;;;4.30;2.10;;;;;;;10.41;59.70;98565.09;4900723;29;20124;-74
2020/12/07 05:40:32;;;;;;;3.85;2.08;;;;;;;9.90;60.08;98475.03;4900562;29;20076;-76
2020/12/07 05:43:00;;;;;;;5.30;2.78;;;;;;;10.42;59.67;98554.84;4900490;29;20052;-76
2020/12/07 05:45:28;;;;;;;3.80;2.20;;;;;;;10.10;60.36;98518.88;4899430;29;20048;-75
2020/12/07 05:47:57;;;;;;;4.63;1.88;;;;;;;10.10;60.91;98529.06;4899203;29;20052;-74
2020/12/07 05:50:29;;;;;;;3.30;1.80;;;;;;;10.33;60.11;98585.63;4900547;29;20075;-74
2020/12/07 05:52:58;;;;;;;4.68;2.22;;;;;;;9.92;60.20;98493.69;4900298;29;20045;-76
2020/12/07 05:55:26;;;;;;;4.88;2.00;;;;;;;10.38;60.09;98583.84;4900294;29;20135;-74
2020/12/07 05:58:02;;;;;;;4.00;2.00;;;;;;;10.06;60.17;98524.88;4900183;29;20044;-74
2020/12/07 06:00:32;;;;;;;4.60;1.90;;;;;;;9.88;60.17;98507.38;4900119;29;20053;-75
2020/12/07 06:02:59;;;;;;;4.43;1.90;;;;;;;10.19;60.71;98576.53;4900134;29;20058;-75
2020/12/07 06:05:27;;;;;;;4.45;2.35;;;;;;;10.30;60.13;98590.78;4900047;29;20053;-75
2020/12/07 06:08:09;;;;;;;4.50;1.95;;;;;;;10.20;59.88;98584.13;4899437;29;20503;-76
2020/12/07 06:10:40;;;;;;;8.70;2.15;;;;;;;10.11;60.08;98574.06;4899090;29;20132;-73
2020/12/07 06:13:12;;;;;;;4.18;2.40;;;;;;;10.24;60.17;98596.00;4900334;29;20056;-73
2020/12/07 06:15:44;;;;;;;5.07;2.35;;;;;;;10.16;60.70;98577.41;4914420;29;20061;-72
2020/12/07 06:18:22;;;;;;;4.78;2.20;;;;;;;10.21;60.32;98590.94;4899868;29;20051;-75
2020/12/07 06:20:54;;;;;;;4.28;2.15;;;;;;;10.17;60.39;98594.41;4899959;29;20543;-75
2020/12/07 06:23:34;;;;;;;4.75;2.30;;;;;;;10.06;60.34;98580.94;4899555;29;20056;-73
2020/12/07 06:26:02;;;;;;;3.60;1.85;;;;;;;10.05;60.99;98595.41;4899713;29;20436;-75
2020/12/07 06:28:34;;;;;;;3.85;2.22;;;;;;;10.08;61.23;98615.75;4899750;29;20044;-77
2020/12/07 06:31:09;;;;;;;4.45;2.25;;;;;;;9.99;61.45;98599.75;4898482;29;20155;-77
2020/12/07 06:33:38;;;;;;;5.15;2.40;;;;;;;9.61;61.64;98530.72;4899699;29;20055;-76
2020/12/07 06:36:06;;;;;;;6.03;2.30;;;;;;;10.02;61.13;98609.91;4899417;29;20136;-76
2020/12/07 06:38:42;;;;;;;4.78;2.20;;;;;;;10.01;61.36;98619.25;4898326;29;20100;-77
2020/12/07 06:41:10;;;;;;;4.90;2.47;;;;;;;10.00;61.19;98614.19;4914097;29;20052;-78
2020/12/07 06:43:39;;;;;;;4.47;2.42;;;;;;;9.97;62.16;98624.44;4882884;29;20528;-76
2020/12/07 06:46:09;;;;;;;5.15;2.50;;;;;;;9.96;61.59;98625.28;4852902;29;20049;-76
2020/12/07 06:48:37;;;;;;;4.25;2.25;;;;;;;9.45;61.42;98540.31;4898397;29;20441;-76
2020/12/07 06:51:05;;;;;;;5.75;2.50;;;;;;;9.94;61.65;98627.03;4882617;29;20053;-76
2020/12/07 06:56:13;;;;;;;4.25;2.40;;;;;;;9.88;61.59;98627.97;4899282;29;20052;-77
2020/12/07 06:58:41;;;;;;;4.28;2.40;;;;;;;9.86;62.65;98641.59;4867653;29;20048;-76
2020/12/07 07:01:13;;;;;;;4.72;2.38;;;;;;;9.83;61.72;98639.09;4899204;29;20053;-76
2020/12/07 07:03:48;;;;;;;5.78;2.38;;;;;;;9.45;61.89;98576.78;4899029;29;20511;-76
2020/12/07 07:06:18;;;;;;;5.90;2.47;;;;;;;9.81;62.59;98646.75;4899214;29;20136;-76
2020/12/07 07:08:47;;;;;;;6.03;2.90;;;;;;;9.32;61.99;98565.09;4898028;29;20059;-76
2020/12/07 07:11:15;;;;;;;5.30;2.70;;;;;;;9.46;62.08;98592.91;4899066;29;20448;-77
2020/12/07 07:13:47;;;;;;;4.30;2.38;;;;;;;9.57;62.79;98616.53;4913434;29;20056;-76
2020/12/07 07:16:17;;;;;;;5.00;2.55;;;;;;;9.55;62.40;98632.72;4897724;29;20491;-76
2020/12/07 07:18:45;;;;;;;;;;;;;;;9.73;62.41;98652.81;4899291;29;20053;-76
2020/12/07 07:21:13;;;;;;;5.88;2.50;;;;;;;9.73;62.34;98658.75;4912816;29;20021;-77
2020/12/07 07:23:42;;;;;;;4.80;2.47;;;;;;;9.15;63.08;98561.94;4898562;29;20088;-74
2020/12/07 07:26:19;;;;;;;6.13;2.50;;;;;;;9.70;62.37;98663.91;4898712;29;20052;-76
2020/12/07 07:28:46;;;;;;;4.70;2.53;;;;;;;9.46;63.03;98618.38;4898756;29;20419;-77
2020/12/07 07:31:15;;;;;;;4.13;2.58;;;;;;;9.61;63.71;98653.00;4897523;29;20047;-74
2020/12/07 07:33:43;;;;;;;5.75;2.47;;;;;;;8.96;63.73;98565.56;4897551;29;20400;-74
2020/12/07 07:36:21;;;;;;;4.55;2.45;;;;;;;9.01;63.85;98558.72;4898640;29;20037;-74
2020/12/07 07:38:52;;;;;;;4.95;2.58;;;;;;;9.30;64.17;98627.09;4898736;29;20108;-74
2020/12/07 07:41:25;;;;;;;4.43;2.30;;;;;;;9.07;65.64;98586.63;4898542;29;20090;-74
2020/12/07 07:43:55;;;;;;;5.15;2.42;;;;;;;8.98;65.72;98599.47;4898595;29;20067;-73
2020/12/07 07:46:23;;;;;;;5.80;3.10;;;;;;;9.20;66.67;98662.00;4898440;29;20056;-74
2020/12/07 07:49:06;;;;;;;4.75;2.65;;;;;;;9.17;67.64;98666.28;4898540;29;20045;-73
2020/12/07 08:15:49;;;;;;;4.80;2.50;;;;;;;8.47;72.33;98671.25;4898631;29;20084;-72
2020/12/07 08:18:20;;;;;;;5.00;2.58;;;;;;;8.54;72.98;98699.13;4912693;29;20452;-72
2020/12/07 08:20:53;;;;;;;5.47;2.70;;;;;;;8.52;72.46;98694.91;4897332;29;20045;-72
2020/12/07 08:23:26;;;;;;;5.75;2.75;;;;;;;8.08;72.48;98634.25;4896961;29;20065;-72
2020/12/07 08:25:54;;;;;;;6.60;2.88;;;;;;;8.11;72.23;98637.59;4898212;29;20052;-73
2020/12/07 08:28:25;;;;;;;5.95;2.70;;;;;;;8.06;72.51;98634.25;4898069;29;20406;-72
2020/12/07 08:31:17;;;;;;;7.63;3.45;;;;;;;8.47;72.06;98707.66;4898337;29;20060;-72
2020/12/07 08:33:55;;;;;;;4.65;2.60;;;;;;;8.51;71.13;98708.50;4900063;29;20051;-72
2020/12/07 08:36:23;;;;;;;5.47;2.70;;;;;;;8.28;71.45;98679.88;4901897;29;20124;-73
2020/12/07 08:38:51;;;;;;;5.30;2.63;;;;;;;8.51;71.10;98719.50;4916021;29;20049;-73
2020/12/07 08:41:23;;;;;;;4.95;2.75;;;;;;;8.49;72.25;98715.28;4901648;29;20132;-72
2020/12/07 08:43:53;;;;;;;5.40;2.60;;;;;;;8.48;72.51;98733.94;4901483;29;20059;-72
2020/12/07 08:46:21;;;;;;;4.90;2.80;;;;;;;8.47;72.76;98722.09;4901669;29;20464;-73
2020/12/07 08:48:51;;;;;;;4.72;2.38;;;;;;;8.01;71.22;98663.91;4901610;29;20111;-73
2020/12/07 08:51:19;;;;;;;4.50;2.25;;;;;;;8.46;72.34;98725.47;4901573;29;20049;-73
2020/12/07 08:53:52;;;;;;;5.53;3.08;;;;;;;8.44;72.50;98733.13;4901601;29;20080;-72
2020/12/07 08:56:19;;;;;;;7.07;2.85;;;;;;;8.39;72.11;98728.94;4900526;29;20076;-72
2020/12/07 08:58:50;;;;;;;5.30;3.25;;;;;;;8.42;71.74;98726.38;4901399;29;20076;-72
2020/12/07 09:01:19;;;;;;;7.20;3.10;;;;;;;8.40;72.08;98733.13;4901614;29;20049;-72
2020/12/07 09:03:51;;;;;;;6.03;2.83;;;;;;;8.35;72.48;98729.81;4915876;29;20056;-73
2020/12/07 09:06:44;;;;;;;5.72;2.90;;;;;;;8.25;72.17;98712.91;4901273;29;20060;-73
2020/12/07 09:09:15;;;;;;;5.60;2.80;;;;;;;8.39;72.11;98741.63;4901225;29;20124;-74
2020/12/07 09:11:43;;;;;;;6.22;3.00;;;;;;;8.38;71.57;98752.66;4899918;29;20495;-73
2020/12/07 09:14:12;;;;;;;;;;;;;;;8.36;71.90;98749.28;4901491;29;20060;-73
2020/12/07 09:16:42;;;;;;;5.55;2.70;;;;;;;8.35;71.94;98747.63;4901072;29;19931;-73
2020/12/07 09:19:12;;;;;;;5.88;2.92;;;;;;;8.35;72.21;98739.97;4901343;29;20080;-72
2020/12/07 09:21:39;;;;;;;5.57;2.85;;;;;;;8.31;72.41;98734.06;4915496;29;20567;-73
2020/12/07 09:24:07;;;;;;;6.32;2.80;;;;;;;8.28;72.58;98740.88;4900523;29;20053;-72
2020/12/07 09:26:35;;;;;;;6.43;2.92;;;;;;;8.27;72.89;98739.19;4900543;29;20060;-72
2020/12/07 09:29:05;;;;;;;6.72;3.22;;;;;;;8.27;73.02;98739.19;4900906;29;20104;-73
2020/12/07 09:31:57;;;;;;;6.47;2.83;;;;;;;8.23;73.55;98738.31;4899656;29;20045;-73
2020/12/07 09:34:25;;;;;;;5.68;3.03;;;;;;;8.07;74.17;98722.34;4899381;29;20049;-73
2020/12/07 09:36:55;;;;;;;5.65;3.08;;;;;;;8.13;73.85;98736.72;4900850;29;20073;-72
2020/12/07 09:39:25;;;;;;;7.15;3.53;;;;;;;8.09;73.70;98740.09;4900208;29;20131;-75
2020/12/07 09:41:59;;;;;;;6.22;3.08;;;;;;;8.06;74.99;98740.97;4918389;29;20048;-72
2020/12/07 09:44:27;;;;;;;6.78;3.47;;;;;;;7.85;74.58;98700.44;4898315;29;20044;-72
2020/12/07 09:46:58;;;;;;;5.63;2.95;;;;;;;8.04;74.22;98732.50;4915436;29;20128;-72
2020/12/07 09:49:26;;;;;;;5.07;2.88;;;;;;;7.88;73.99;98718.22;4902718;29;20055;-72
2020/12/07 09:51:54;;;;;;;6.10;3.10;;;;;;;8.07;73.63;98752.81;4917952;29;20059;-72
2020/12/07 09:54:22;;;;;;;5.18;2.75;;;;;;;7.54;73.73;98663.38;4899432;29;20088;-72
2020/12/07 09:56:50;;;;;;;7.45;3.72;;;;;;;8.03;73.37;98742.69;4900559;29;20053;-72
2020/12/07 09:59:19;;;;;;;5.43;2.92;;;;;;;8.00;74.17;98742.69;4900603;29;20407;-72
2020/12/07 10:01:50;;;;;;;6.00;2.83;;;;;;;8.05;74.54;98754.53;4917703;29;20115;-73
2020/12/07 10:04:18;;;;;;;5.63;2.67;;;;;;;7.92;74.16;98742.75;4917847;29;20152;-73
2020/12/07 10:06:46;;;;;;;5.13;3.33;;;;;;;7.98;74.32;98759.66;4917805;29;20055;-72
2020/12/07 10:09:14;;;;;;;4.90;2.75;;;;;;;8.01;74.46;98755.38;4917563;29;20048;-73
2020/12/07 10:12:06;;;;;;;5.28;2.90;;;;;;;7.82;74.87;98715.69;4914037;29;20048;-73
2020/12/07 10:14:34;;;;;;;5.32;3.15;;;;;;;7.97;74.68;98751.19;4917394;29;20052;-74
2020/12/07 10:17:02;;;;;;;5.50;3.33;;;;;;;7.83;74.62;98712.31;4917240;29;20063;-72
2020/12/07 10:19:33;;;;;;;5.55;3.05;;;;;;;7.96;73.84;98731.72;4918987;29;20075;-73
2020/12/07 10:22:03;;;;;;;7.32;3.05;;;;;;;7.54;74.15;98663.38;4917919;29;20051;-73
2020/12/07 10:24:31;;;;;;;5.68;3.03;;;;;;;7.91;74.24;98713.13;4916953;29;20075;-72
2020/12/07 10:26:58;;;;;;;5.47;3.05;;;;;;;7.94;74.25;98717.34;4918701;29;20052;-72
2020/12/07 10:29:31;;;;;;;5.38;3.30;;;;;;;7.53;73.97;98655.78;4917481;29;20566;-73
2020/12/07 10:31:58;;;;;;;6.18;3.25;;;;;;;7.95;74.91;98732.56;4918679;29;20052;-72
2020/12/07 10:34:26;;;;;;;5.85;3.20;;;;;;;7.97;74.66;98727.47;4918485;29;20046;-72
2020/12/07 10:37:21;;;;;;;6.40;3.17;;;;;;;7.92;74.55;98724.97;4917581;29;20051;-72
2020/12/07 10:40:14;;;;;;;6.63;2.80;;;;;;;7.99;74.83;98734.22;4901596;29;20048;-73
2020/12/07 10:42:42;;;;;;;6.00;3.22;;;;;;;8.00;73.42;98748.63;4917723;29;20051;-73
2020/12/07 10:45:10;;;;;;;6.28;3.45;;;;;;;7.98;74.80;98752.88;4918542;29;20530;-73
2020/12/07 10:47:38;;;;;;;6.30;3.28;;;;;;;7.98;74.42;98752.88;4898287;29;20104;-72
2020/12/07 10:50:30;;;;;;;6.10;3.50;;;;;;;7.99;74.99;98734.22;4907140;29;20525;-72
2020/12/07 10:53:03;;;;;;;5.65;3.17;;;;;;;7.93;74.37;98733.44;4917110;29;20048;-73
2020/12/07 10:55:42;;;;;;;6.22;3.35;;;;;;;7.97;74.41;98756.25;4914718;29;20128;-73
2020/12/07 10:58:59;;;;;;;;;;;;;;;7.95;74.23;98757.13;4900126;29;20080;-73
2020/12/07 11:01:55;;;;;;;8.65;3.47;;;;;;;7.48;74.30;98672.72;4899061;29;19924;-73
2020/12/07 11:04:24;;;;;;;6.10;3.50;;;;;;;7.96;74.78;98759.69;4898324;29;20048;-73
2020/12/07 11:06:53;;;;;;;5.85;3.30;;;;;;;7.97;73.85;98755.41;4898079;29;20041;-72
2020/12/07 11:09:24;;;;;;;5.55;3.05;;;;;;;7.96;74.29;98739.34;4899195;29;20044;-73
2020/12/07 11:11:57;;;;;;;;;;;;;;;8.05;74.21;98723.19;4898170;29;20044;-73
2020/12/07 11:14:25;;;;;;;4.93;2.97;;;;;;;8.09;73.81;98715.53;4899341;29;19934;-72
2020/12/07 11:17:18;;;;;;;5.38;3.30;;;;;;;8.09;74.28;98720.63;4897783;29;20076;-73
2020/12/07 11:19:48;;;;;;;7.70;3.90;;;;;;;8.13;74.87;98722.28;4897757;29;20062;-73
2020/12/07 11:22:16;;;;;;;7.07;3.60;;;;;;;7.71;74.49;98655.66;4898693;29;20100;-73
2020/12/07 11:24:47;;;;;;;6.68;3.60;;;;;;;8.15;74.33;98718.91;4897588;29;20059;-73
2020/12/07 11:27:14;;;;;;;5.88;3.50;;;;;;;8.23;74.40;98729.88;4913195;29;20056;-73
2020/12/07 11:29:42;;;;;;;7.50;3.38;;;;;;;8.22;73.90;98734.09;4898792;29;20049;-73
2020/12/07 11:32:10;;;;;;;7.95;4.10;;;;;;;8.19;74.43;98738.34;4897462;29;20128;-73
2020/12/07 11:34:39;;;;;;;;;;;;;;;8.19;74.05;98743.44;4897959;29;20093;-73
2020/12/07 11:37:08;;;;;;;7.28;3.33;;;;;;;8.15;74.06;98749.41;4898668;29;19923;-73
2020/12/07 11:39:46;;;;;;;6.80;3.60;;;;;;;8.10;74.41;98746.88;4898733;29;20064;-73
2020/12/07 11:42:23;;;;;;;6.68;3.33;;;;;;;8.04;74.27;98757.91;4898623;29;20068;-73
2020/12/07 11:44:52;;;;;;;5.95;3.20;;;;;;;7.78;74.73;98719.13;4898521;29;20123;-73
2020/12/07 11:47:21;;;;;;;7.82;3.47;;;;;;;7.82;74.73;98730.94;4912879;29;20076;-73
2020/12/07 11:49:50;;;;;;;5.93;3.30;;;;;;;7.99;74.93;98754.56;4897584;29;20059;-73
2020/12/07 11:52:18;;;;;;;5.63;3.33;;;;;;;7.75;73.95;98714.03;4897353;29;20053;-73
2020/12/07 11:54:48;;;;;;;5.60;3.35;;;;;;;7.71;74.65;98707.31;4898451;29;20131;-73
2020/12/07 11:57:17;;;;;;;6.45;3.75;;;;;;;7.40;73.42;98640.59;4898362;29;20135;-73
2020/12/07 11:59:47;;;;;;;6.53;3.72;;;;;;;8.05;73.86;98749.44;4897223;29;20053;-73
2020/12/07 12:02:15;;;;;;;5.70;3.50;;;;;;;8.03;74.37;98735.91;4898368;29;20037;-73
2020/12/07 12:04:44;;;;;;;5.90;3.40;;;;;;;8.09;74.30;98740.94;4897076;29;20076;-74
2020/12/07 12:07:11;;;;;;;6.32;3.60;;;;;;;8.10;73.49;98741.81;4900968;29;20487;-73
2020/12/07 12:09:40;;;;;;;7.18;3.55;;;;;;;8.11;73.70;98733.31;4916330;29;20498;-73
2020/12/07 12:12:07;;;;;;;8.68;3.80;;;;;;;8.13;73.50;98725.69;4920228;29;20048;-73
2020/12/07 12:14:38;;;;;;;5.95;3.13;;;;;;;8.04;73.93;98707.09;4921056;29;20143;-74
2020/12/07 12:17:06;;;;;;;5.97;3.08;;;;;;;8.18;72.87;98729.06;4919062;29;20055;-74
2020/12/07 12:19:59;;;;;;;7.25;3.78;;;;;;;8.23;72.90;98717.16;4919928;29;20535;-73
2020/12/07 12:22:27;;;;;;;6.40;3.70;;;;;;;8.20;72.82;98712.09;4919797;29;20045;-72